createdAt,value
2023-03-29T00:01:35.220Z,6.32
2023-03-29T00:06:42.334Z,6.75
2023-03-29T00:11:45.416Z,5.82
2023-03-29T00:16:49.924Z,6.03
2023-03-29T00:21:52.554Z,6.03
2023-03-29T00:26:55.159Z,6.22
2023-03-29T00:31:57.699Z,6.82
2023-03-29T00:37:00.450Z,7.13
2023-03-29T00:42:03.246Z,6.22
2023-03-29T00:47:09.163Z,6.00
2023-03-29T00:52:14.377Z,7.50
2023-03-29T00:57:19.370Z,6.38
2023-03-29T01:02:26.419Z,6.60
2023-03-29T01:07:38.877Z,6.65
2023-03-29T01:12:50.554Z,6.53
2023-03-29T01:17:55.815Z,5.85
2023-03-29T01:23:07.694Z,6.13
2023-03-29T01:28:23.047Z,7.20
2023-03-29T01:33:32.546Z,6.32
2023-03-29T01:38:39.840Z,5.80
2023-03-29T01:43:57.134Z,6.30
2023-03-29T01:49:32.780Z,7.13
2023-03-29T01:54:48.618Z,6.20
2023-03-29T01:59:53.804Z,6.38
2023-03-29T02:04:59.894Z,6.15
2023-03-29T02:10:12.282Z,6.35
2023-03-29T02:15:21.278Z,5.75
2023-03-29T02:20:30.845Z,6.28
2023-03-29T02:25:37.595Z,6.00
2023-03-29T02:31:00.143Z,6.03
2023-03-29T02:36:11.870Z,5.57
2023-03-29T02:41:17.134Z,5.72
2023-03-29T02:46:21.220Z,6.68
2023-03-29T02:51:29.554Z,5.88
2023-03-29T02:56:51.597Z,5.10
2023-03-29T03:01:55.422Z,4.90
2023-03-29T03:06:58.947Z,5.65
2023-03-29T03:12:02.149Z,7.57
2023-03-29T03:17:05.048Z,8.85
2023-03-29T03:22:15.832Z,5.85
2023-03-29T03:27:19.334Z,4.50
2023-03-29T03:32:24.294Z,5.00
2023-03-29T03:37:28.101Z,6.38
2023-03-29T03:42:31.321Z,4.78
2023-03-29T03:47:38.285Z,4.07
2023-03-29T03:53:02.817Z,4.20
2023-03-29T03:58:25.506Z,3.28
2023-03-29T04:03:29.567Z,3.47
2023-03-29T04:08:37.053Z,3.50
2023-03-29T04:13:46.949Z,3.83
2023-03-29T04:19:04.530Z,3.30
2023-03-29T04:24:08.581Z,3.42
2023-03-29T04:29:14.540Z,4.32
2023-03-29T04:34:23.747Z,4.40
2023-03-29T04:39:34.263Z,3.20
2023-03-29T04:44:43.007Z,5.72
2023-03-29T04:49:49.308Z,9.73
2023-03-29T04:55:07.477Z,6.65
2023-03-29T05:00:33.149Z,3.70
2023-03-29T05:06:12.358Z,5.72
2023-03-29T05:11:17.666Z,3.95
2023-03-29T05:16:24.796Z,7.78
2023-03-29T05:21:31.879Z,3.40
2023-03-29T05:26:40.734Z,4.88
2023-03-29T05:31:45.332Z,4.05
2023-03-29T05:36:49.299Z,4.47
2023-03-29T05:41:51.979Z,4.40
2023-03-29T05:47:14.679Z,3.28
2023-03-29T05:52:17.281Z,4.45
2023-03-29T05:57:22.975Z,3.67
2023-03-29T06:02:28.806Z,3.30
2023-03-29T06:07:32.310Z,3.15
2023-03-29T06:12:54.809Z,3.28
2023-03-29T06:18:01.401Z,3.35
2023-03-29T06:23:05.718Z,3.17
2023-03-29T06:28:09.138Z,3.65
2023-03-29T06:33:14.542Z,4.18
2023-03-29T06:38:29.395Z,3.30
2023-03-29T06:43:51.155Z,3.38
2023-03-29T06:50:21.579Z,3.05
2023-03-29T06:56:09.637Z,3.40
2023-03-29T07:02:16.875Z,4.00
2023-03-29T07:08:08.574Z,3.53
2023-03-29T07:13:22.684Z,3.30
2023-03-29T07:18:57.670Z,3.47
2023-03-29T07:24:21.920Z,3.60
2023-03-29T07:29:25.625Z,3.95
2023-03-29T07:34:30.303Z,4.10
2023-03-29T07:39:34.446Z,5.18
2023-03-29T07:45:47.683Z,4.50
2023-03-29T07:50:52.102Z,3.97
2023-03-29T07:56:01.456Z,4.10
2023-03-29T08:01:25.074Z,3.28
2023-03-29T08:06:46.405Z,3.70
2023-03-29T08:11:50.330Z,3.72
2023-03-29T08:17:00.389Z,3.90
2023-03-29T08:22:05.018Z,4.07
2023-03-29T08:27:34.238Z,4.03
2023-03-29T08:32:39.493Z,4.15
2023-03-29T08:37:49.798Z,3.92
2023-03-29T08:43:19.716Z,4.40
2023-03-29T08:49:32.326Z,4.78
2023-03-29T09:01:54.416Z,5.65
2023-03-29T09:06:59.758Z,5.43
2023-03-29T09:12:17.607Z,5.20
2023-03-29T09:17:39.576Z,3.90
2023-03-29T09:23:09.220Z,4.55
2023-03-29T09:29:08.317Z,6.35
2023-03-29T09:34:43.832Z,4.50
2023-03-29T09:39:57.946Z,4.32
2023-03-29T09:45:17.688Z,4.20
2023-03-29T09:50:32.373Z,5.80
2023-03-29T09:55:44.538Z,4.03
2023-03-29T10:01:01.389Z,4.97
2023-03-29T10:06:10.340Z,5.00
2023-03-29T10:11:31.259Z,5.68
2023-03-29T10:16:41.213Z,5.10
2023-03-29T10:21:53.328Z,5.93
2023-03-29T10:27:03.963Z,4.95
2023-03-29T10:32:35.967Z,5.68
2023-03-29T10:37:52.672Z,7.40
2023-03-29T10:43:02.624Z,4.40
2023-03-29T10:48:13.195Z,4.53
2023-03-29T10:53:20.408Z,5.10
2023-03-29T10:58:39.505Z,4.70
2023-03-29T11:04:26.384Z,5.53
2023-03-29T11:09:45.186Z,6.82
2023-03-29T11:15:28.451Z,4.15
2023-03-29T11:20:43.095Z,4.13
2023-03-29T11:26:05.840Z,4.22
2023-03-29T11:31:26.371Z,4.25
2023-03-29T11:36:45.866Z,4.43
2023-03-29T11:41:54.298Z,4.28
2023-03-29T11:47:09.043Z,4.60
2023-03-29T11:52:26.967Z,3.58
2023-03-29T11:57:54.923Z,4.20
2023-03-29T12:03:11.870Z,4.13
2023-03-29T12:08:36.366Z,3.65
2023-03-29T12:14:28.076Z,4.00
2023-03-29T12:19:43.865Z,4.60
2023-03-29T12:24:52.180Z,4.45
2023-03-29T12:30:22.352Z,3.67
2023-03-29T12:35:39.503Z,5.20
2023-03-29T12:41:11.687Z,5.25
2023-03-29T12:46:45.650Z,3.70
2023-03-29T12:51:49.500Z,4.72
2023-03-29T12:56:53.269Z,5.20
2023-03-29T13:02:06.297Z,3.80
2023-03-29T13:07:48.024Z,5.68
2023-03-29T13:12:51.215Z,4.82
2023-03-29T13:18:15.343Z,3.53
2023-03-29T13:23:32.684Z,4.63
2023-03-29T13:28:44.265Z,4.80
2023-03-29T13:33:58.841Z,7.82
2023-03-29T13:39:08.304Z,5.82
2023-03-29T13:44:30.771Z,9.30
2023-03-29T13:49:35.635Z,7.05
2023-03-29T13:54:58.048Z,4.60
2023-03-29T14:00:26.212Z,5.07
2023-03-29T14:05:43.366Z,5.43
2023-03-29T14:10:48.004Z,4.28
2023-03-29T14:16:12.766Z,4.20
2023-03-29T14:21:16.577Z,3.90
2023-03-29T14:26:24.563Z,3.88
2023-03-29T14:31:33.127Z,3.63
2023-03-29T14:36:36.868Z,3.60
2023-03-29T14:41:49.976Z,3.65
2023-03-29T14:46:54.347Z,4.65
2023-03-29T14:51:57.649Z,7.20
2023-03-29T14:57:07.627Z,7.82
2023-03-29T15:02:27.499Z,9.00
2023-03-29T15:07:31.072Z,7.10
2023-03-29T15:12:34.453Z,6.95
2023-03-29T15:17:51.146Z,9.82
2023-03-29T15:23:02.746Z,10.82
2023-03-29T15:28:05.834Z,2.65
2023-03-29T15:33:24.530Z,2.90
2023-03-29T15:38:40.500Z,3.50
2023-03-29T15:43:47.192Z,1.95
2023-03-29T15:48:49.667Z,1.85
2023-03-29T15:53:52.247Z,1.92
2023-03-29T15:58:54.760Z,1.42
2023-03-29T16:03:58.193Z,1.80
2023-03-29T16:09:00.812Z,1.70
2023-03-29T16:14:06.999Z,1.58
2023-03-29T16:19:09.372Z,1.73
2023-03-29T16:24:18.203Z,2.70
2023-03-29T16:29:21.184Z,6.63
2023-03-29T16:34:24.457Z,8.93
2023-03-29T16:39:27.946Z,7.22
2023-03-29T16:44:30.274Z,5.65
2023-03-29T16:49:32.753Z,4.38
2023-03-29T16:54:35.262Z,3.85
2023-03-29T16:59:37.735Z,3.30
2023-03-29T17:04:40.233Z,3.58
2023-03-29T17:09:42.901Z,3.15
2023-03-29T17:14:45.460Z,2.92
2023-03-29T17:19:48.019Z,2.75
2023-03-29T17:24:50.699Z,3.22
2023-03-29T17:29:53.455Z,3.80
2023-03-29T17:34:56.175Z,3.72
2023-03-29T17:39:58.597Z,3.60
2023-03-29T17:45:01.301Z,7.75
2023-03-29T17:50:07.085Z,6.43
2023-03-29T17:55:13.536Z,5.20
2023-03-29T18:00:16.711Z,6.15
2023-03-29T18:05:19.110Z,5.00
2023-03-29T18:10:21.665Z,5.03
2023-03-29T18:15:24.302Z,4.28
2023-03-29T18:20:26.669Z,5.05
2023-03-29T18:25:29.666Z,4.68
2023-03-29T18:30:32.781Z,3.92
2023-03-29T18:35:35.289Z,3.60
2023-03-29T18:40:39.558Z,3.65
2023-03-29T18:45:43.861Z,3.33
2023-03-29T18:50:47.222Z,3.38
2023-03-29T18:55:49.592Z,3.30
2023-03-29T19:00:52.592Z,2.92
2023-03-29T19:05:55.925Z,2.45
2023-03-29T19:11:04.492Z,6.15
2023-03-29T19:16:07.741Z,9.23
2023-03-29T19:21:12.235Z,4.68
2023-03-29T19:26:15.635Z,1.90
2023-03-29T19:31:18.230Z,2.55
2023-03-29T19:36:21.871Z,2.38
2023-03-29T19:41:24.321Z,2.40
2023-03-29T19:46:28.550Z,2.40
2023-03-29T19:51:31.032Z,2.70
2023-03-29T19:56:35.093Z,2.40
2023-03-29T20:01:40.912Z,3.00
2023-03-29T20:06:45.920Z,3.00
2023-03-29T20:11:48.813Z,4.82
2023-03-29T20:16:53.188Z,8.43
2023-03-29T20:21:57.794Z,7.22
2023-03-29T20:27:00.169Z,4.57
2023-03-29T20:32:04.282Z,4.43
2023-03-29T20:37:07.894Z,3.83
2023-03-29T20:42:10.467Z,4.75
2023-03-29T20:47:14.354Z,4.68
2023-03-29T20:52:17.444Z,2.70
2023-03-29T20:57:21.190Z,3.53
2023-03-29T21:02:24.314Z,2.83
2023-03-29T21:07:29.410Z,2.47
2023-03-29T21:12:32.428Z,1.92
2023-03-29T21:17:36.481Z,2.38
2023-03-29T21:22:40.256Z,2.08
2023-03-29T21:27:44.309Z,2.88
2023-03-29T21:32:47.318Z,2.50
2023-03-29T21:37:50.192Z,2.15
2023-03-29T21:42:53.509Z,2.72
2023-03-29T21:47:57.192Z,2.72
2023-03-29T21:52:59.570Z,3.00
2023-03-29T21:58:03.849Z,2.53
2023-03-29T22:03:06.520Z,2.60
2023-03-29T22:08:11.986Z,2.63
2023-03-29T22:13:14.425Z,4.47
2023-03-29T22:18:16.997Z,6.20
2023-03-29T22:23:20.273Z,10.50
2023-03-29T22:28:22.696Z,9.27
2023-03-29T22:33:27.124Z,9.57
2023-03-29T22:38:31.328Z,10.57
2023-03-29T22:43:37.871Z,11.05
2023-03-29T22:48:40.893Z,8.23
2023-03-29T22:53:44.130Z,5.57
2023-03-29T22:58:47.371Z,3.47
2023-03-29T23:03:49.873Z,2.88
2023-03-29T23:08:52.290Z,2.65
2023-03-29T23:13:55.355Z,3.13
2023-03-29T23:18:58.613Z,3.60
2023-03-29T23:24:00.987Z,4.00
2023-03-29T23:29:04.417Z,4.00
2023-03-29T23:34:07.092Z,3.78
2023-03-29T23:39:10.314Z,4.32
2023-03-29T23:44:12.824Z,4.53
2023-03-29T23:49:17.491Z,4.78
2023-03-29T23:54:19.917Z,4.97
2023-03-29T23:59:27.172Z,5.20
